createdAt,value
2019-01-20T07:21:14.885Z,57.45
2019-01-20T07:26:18.662Z,57.59
2019-01-20T07:31:22.396Z,56.42
2019-01-20T07:36:26.122Z,56.36
2019-01-20T07:41:30.532Z,56.43
2019-01-20T07:46:34.264Z,56.25
2019-01-20T07:51:38.003Z,56.30
2019-01-20T07:56:41.727Z,56.33
2019-01-20T08:01:45.540Z,56.29
2019-01-20T08:06:49.367Z,56.33
2019-01-20T08:11:53.444Z,56.29
2019-01-20T08:16:57.297Z,56.34
2019-01-20T08:22:01.144Z,56.30
2019-01-20T08:28:02.231Z,56.36
2019-01-20T08:33:06.000Z,56.45
2019-01-20T08:38:09.901Z,56.33
2019-01-20T08:43:13.658Z,56.33
2019-01-20T08:48:19.672Z,56.40
2019-01-20T08:53:23.440Z,56.43
2019-01-20T08:58:27.438Z,56.51
2019-01-20T09:03:31.534Z,56.53
2019-01-20T09:08:35.663Z,56.65
2019-01-20T09:13:41.619Z,56.80
2019-01-20T09:18:46.014Z,56.87
2019-01-20T09:23:50.175Z,56.87
2019-01-20T09:28:53.908Z,56.98
2019-01-20T09:34:00.769Z,56.93
2019-01-20T09:39:09.347Z,56.96
2019-01-20T09:44:14.442Z,57.01
2019-01-20T09:49:18.733Z,57.06
2019-01-20T09:54:22.827Z,57.07
2019-01-20T09:59:26.687Z,57.18
2019-01-20T10:04:35.200Z,57.24
2019-01-20T10:09:54.593Z,57.23
2019-01-20T10:14:58.751Z,57.25
2019-01-20T10:20:04.102Z,57.17
2019-01-20T10:25:14.930Z,57.15
2019-01-20T10:30:19.858Z,57.16
2019-01-20T10:35:27.305Z,57.06
2019-01-20T10:40:32.305Z,56.91
2019-01-20T10:45:36.440Z,56.83
2019-01-20T10:50:40.363Z,56.71
2019-01-20T10:55:44.178Z,56.60
2019-01-20T11:00:48.004Z,56.41
2019-01-20T11:05:51.881Z,56.13
2019-01-20T11:10:55.714Z,55.96
2019-01-20T11:15:59.645Z,55.81
2019-01-20T11:21:03.508Z,55.63
2019-01-20T11:26:07.441Z,55.50
2019-01-20T11:31:11.258Z,55.35
2019-01-20T11:36:15.086Z,55.15
2019-01-20T11:41:18.968Z,54.88
2019-01-20T11:46:25.079Z,53.66
2019-01-20T11:51:34.365Z,43.25
2019-01-20T11:56:38.192Z,40.04
2019-01-20T12:01:42.054Z,38.42
2019-01-20T12:06:47.890Z,38.37
2019-01-20T12:11:51.787Z,41.20
2019-01-20T12:16:56.999Z,43.58
2019-01-20T12:22:00.973Z,45.94
2019-01-20T12:27:04.969Z,47.53
2019-01-20T12:32:08.742Z,40.87
2019-01-20T12:37:12.595Z,44.73
2019-01-20T12:42:16.391Z,50.97
2019-01-20T12:47:20.140Z,51.02
2019-01-20T12:52:23.924Z,50.40
2019-01-20T12:57:31.707Z,49.62
2019-01-20T13:02:35.738Z,50.24
2019-01-20T13:07:39.549Z,51.05
2019-01-20T13:12:43.548Z,52.94
2019-01-20T13:18:06.455Z,52.57
2019-01-20T13:23:22.637Z,51.42
2019-01-20T13:28:26.712Z,49.85
2019-01-20T13:33:30.517Z,48.27
2019-01-20T13:38:34.314Z,46.76
2019-01-20T13:43:38.227Z,45.29
2019-01-20T13:48:41.962Z,46.20
2019-01-20T13:53:45.782Z,49.51
2019-01-20T13:58:49.630Z,51.47
2019-01-20T14:03:53.362Z,52.34
2019-01-20T14:08:57.183Z,52.58
2019-01-20T14:14:01.044Z,52.65
2019-01-20T14:19:04.893Z,52.39
2019-01-20T14:24:08.764Z,52.46
2019-01-20T14:29:12.557Z,52.27
2019-01-20T14:34:16.369Z,52.96
2019-01-20T14:39:20.258Z,53.21
2019-01-20T14:44:24.073Z,53.04
2019-01-20T14:49:27.836Z,53.38
2019-01-20T14:54:31.582Z,53.45
2019-01-20T14:59:35.376Z,53.84
2019-01-20T15:04:39.356Z,54.33
2019-01-20T15:09:43.101Z,54.78
2019-01-20T15:14:47.791Z,54.70
2019-01-20T15:19:51.597Z,54.63
2019-01-20T15:24:55.357Z,54.53
2019-01-20T15:29:59.334Z,54.42
2019-01-20T15:35:03.306Z,54.44
2019-01-20T15:40:08.081Z,54.55
2019-01-20T15:45:16.524Z,54.62
2019-01-20T15:50:20.666Z,54.90
2019-01-20T15:55:24.558Z,54.91
2019-01-20T16:00:30.392Z,54.86
2019-01-20T16:05:34.128Z,54.95
2019-01-20T16:10:37.946Z,54.87
2019-01-20T16:15:41.743Z,54.83
2019-01-20T16:20:45.480Z,55.03
2019-01-20T16:25:49.235Z,55.16
2019-01-20T16:30:53.037Z,55.21
2019-01-20T16:35:56.797Z,54.96
2019-01-20T16:41:00.593Z,55.25
2019-01-20T16:46:04.374Z,55.34
2019-01-20T16:51:08.128Z,55.70
2019-01-20T16:56:11.915Z,55.42
2019-01-20T17:01:15.811Z,55.65
2019-01-20T17:06:19.605Z,55.96
2019-01-20T17:11:23.361Z,56.03
2019-01-20T17:16:27.126Z,56.01
2019-01-20T17:21:31.016Z,55.40
2019-01-20T17:26:35.011Z,55.65
2019-01-20T17:31:38.894Z,56.17
2019-01-20T17:36:42.695Z,56.12
2019-01-20T17:41:46.669Z,56.14
2019-01-20T17:46:50.522Z,56.24
2019-01-20T17:51:54.314Z,56.60
2019-01-20T17:56:58.275Z,56.62
2019-01-20T18:02:02.179Z,56.67
2019-01-20T18:07:06.126Z,56.54
2019-01-20T18:12:09.966Z,56.51
2019-01-20T18:17:13.824Z,56.55
2019-01-20T18:22:17.672Z,56.63
2019-01-20T18:27:21.464Z,56.15
2019-01-20T18:32:25.247Z,56.10
2019-01-20T18:37:29.001Z,56.12
2019-01-20T18:42:32.817Z,55.89
2019-01-20T18:47:36.697Z,55.96
2019-01-20T18:52:40.532Z,56.02
2019-01-20T18:57:44.376Z,56.07
2019-01-20T19:02:48.142Z,56.08
2019-01-20T19:07:55.430Z,56.47
2019-01-20T19:12:57.542Z,56.59
2019-01-20T19:18:01.384Z,56.72
2019-01-20T19:23:05.646Z,57.24
2019-01-20T19:28:09.509Z,57.34
2019-01-20T19:33:13.402Z,57.25
2019-01-20T19:38:17.204Z,57.36
2019-01-20T19:43:21.030Z,57.61
2019-01-20T19:48:24.849Z,57.43
2019-01-20T19:53:28.686Z,57.64
2019-01-20T19:58:32.422Z,57.86
2019-01-20T20:03:36.187Z,57.87
2019-01-20T20:08:39.959Z,57.59
2019-01-20T20:13:43.780Z,57.85
2019-01-20T20:18:47.527Z,57.98
2019-01-20T20:23:51.309Z,57.68
2019-01-20T20:28:55.144Z,58.02
2019-01-20T20:33:58.918Z,58.05
2019-01-20T20:39:02.653Z,58.16
2019-01-20T20:44:06.502Z,58.39
2019-01-20T20:49:10.313Z,58.40
2019-01-20T20:54:14.207Z,58.25
2019-01-20T20:59:18.037Z,58.07
2019-01-20T21:04:21.981Z,58.24
2019-01-20T21:09:27.565Z,58.43
2019-01-20T21:14:31.428Z,58.54
2019-01-20T21:19:35.172Z,58.24
2019-01-20T21:24:39.197Z,57.87
2019-01-20T21:29:42.961Z,58.06
2019-01-20T21:34:46.818Z,58.36
2019-01-20T21:39:50.604Z,58.37
2019-01-20T21:44:54.377Z,58.24
2019-01-20T21:49:58.313Z,58.38
2019-01-20T21:55:02.186Z,58.60
2019-01-20T22:00:07.482Z,58.77
2019-01-20T22:05:11.703Z,58.80
2019-01-20T22:10:20.360Z,58.67
2019-01-20T22:15:24.208Z,58.45
2019-01-20T22:20:28.035Z,57.83
2019-01-20T22:25:31.780Z,57.04
2019-01-20T22:30:35.594Z,56.93
2019-01-20T22:35:39.364Z,57.00
2019-01-20T22:40:43.165Z,58.05
2019-01-20T22:45:47.005Z,58.38
2019-01-20T22:50:50.794Z,58.42
2019-01-20T22:55:54.558Z,58.49
2019-01-20T23:01:03.220Z,58.85
2019-01-20T23:06:07.234Z,58.83
2019-01-20T23:11:11.045Z,58.94
2019-01-20T23:16:14.938Z,58.83
2019-01-20T23:21:18.725Z,58.87
2019-01-20T23:26:22.434Z,58.84
2019-01-20T23:31:26.193Z,58.00
2019-01-20T23:36:29.991Z,58.22
2019-01-20T23:41:33.777Z,58.63
2019-01-20T23:46:37.531Z,58.80
2019-01-20T23:51:41.301Z,58.94
2019-01-20T23:56:45.151Z,59.03
